sensor_id;sensor_type;location;lat;lon;timestamp;temperature;humidity
792;DHT22;379;49.022;12.148;2023-06-01T00:02:02;14.20;59.40
792;DHT22;379;49.022;12.148;2023-06-01T00:04:29;14.10;59.30
792;DHT22;379;49.022;12.148;2023-06-01T00:06:55;14.10;59.40
792;DHT22;379;49.022;12.148;2023-06-01T00:09:26;14.10;59.30
792;DHT22;379;49.022;12.148;2023-06-01T00:11:53;14.10;59.30
792;DHT22;379;49.022;12.148;2023-06-01T00:14:20;14.00;59.40
792;DHT22;379;49.022;12.148;2023-06-01T00:16:47;14.00;59.60
792;DHT22;379;49.022;12.148;2023-06-01T00:19:13;13.80;59.70
792;DHT22;379;49.022;12.148;2023-06-01T00:21:40;13.70;59.80
792;DHT22;379;49.022;12.148;2023-06-01T00:24:07;13.50;60.40
792;DHT22;379;49.022;12.148;2023-06-01T00:26:35;13.40;62.80
792;DHT22;379;49.022;12.148;2023-06-01T00:29:02;13.30;63.50
792;DHT22;379;49.022;12.148;2023-06-01T00:31:29;13.30;63.80
792;DHT22;379;49.022;12.148;2023-06-01T00:33:56;13.40;63.50
792;DHT22;379;49.022;12.148;2023-06-01T00:36:22;13.30;63.10
792;DHT22;379;49.022;12.148;2023-06-01T00:38:49;13.40;62.70
792;DHT22;379;49.022;12.148;2023-06-01T00:41:16;13.40;62.40
792;DHT22;379;49.022;12.148;2023-06-01T00:43:44;13.40;62.30
792;DHT22;379;49.022;12.148;2023-06-01T00:46:11;13.40;62.20
792;DHT22;379;49.022;12.148;2023-06-01T00:48:39;13.40;62.00
792;DHT22;379;49.022;12.148;2023-06-01T00:51:06;13.40;61.80
792;DHT22;379;49.022;12.148;2023-06-01T00:53:33;13.40;61.70
792;DHT22;379;49.022;12.148;2023-06-01T00:56:00;13.50;61.60
792;DHT22;379;49.022;12.148;2023-06-01T00:58:27;13.40;61.50
792;DHT22;379;49.022;12.148;2023-06-01T01:00:55;13.50;61.10
792;DHT22;379;49.022;12.148;2023-06-01T01:03:22;13.60;60.80
792;DHT22;379;49.022;12.148;2023-06-01T01:05:54;13.60;60.60
792;DHT22;379;49.022;12.148;2023-06-01T01:08:30;13.60;60.50
792;DHT22;379;49.022;12.148;2023-06-01T01:11:03;13.60;60.40
792;DHT22;379;49.022;12.148;2023-06-01T01:13:36;13.40;60.50
792;DHT22;379;49.022;12.148;2023-06-01T01:16:10;13.30;61.10
792;DHT22;379;49.022;12.148;2023-06-01T01:18:42;13.10;62.40
792;DHT22;379;49.022;12.148;2023-06-01T01:21:13;13.00;63.20
792;DHT22;379;49.022;12.148;2023-06-01T01:24:21;12.90;64.10
792;DHT22;379;49.022;12.148;2023-06-01T01:27:01;12.80;64.30
792;DHT22;379;49.022;12.148;2023-06-01T01:29:33;12.80;64.20
792;DHT22;379;49.022;12.148;2023-06-01T01:32:00;12.90;64.10
792;DHT22;379;49.022;12.148;2023-06-01T01:34:30;12.90;63.60
792;DHT22;379;49.022;12.148;2023-06-01T01:36:59;13.00;63.30
792;DHT22;379;49.022;12.148;2023-06-01T01:39:26;13.10;63.20
792;DHT22;379;49.022;12.148;2023-06-01T01:41:52;13.10;63.10
792;DHT22;379;49.022;12.148;2023-06-01T01:44:19;13.10;63.10
792;DHT22;379;49.022;12.148;2023-06-01T01:46:52;13.00;63.20
792;DHT22;379;49.022;12.148;2023-06-01T01:49:27;12.90;63.30
792;DHT22;379;49.022;12.148;2023-06-01T01:52:00;12.90;63.50
792;DHT22;379;49.022;12.148;2023-06-01T01:54:29;12.90;63.60
792;DHT22;379;49.022;12.148;2023-06-01T01:56:59;12.90;63.80
792;DHT22;379;49.022;12.148;2023-06-01T01:59:27;12.80;63.70
792;DHT22;379;49.022;12.148;2023-06-01T02:01:55;12.80;63.70
792;DHT22;379;49.022;12.148;2023-06-01T02:04:23;12.80;63.90
792;DHT22;379;49.022;12.148;2023-06-01T02:06:50;12.70;64.10
792;DHT22;379;49.022;12.148;2023-06-01T02:09:16;12.70;64.40
792;DHT22;379;49.022;12.148;2023-06-01T02:11:43;12.60;64.40
792;DHT22;379;49.022;12.148;2023-06-01T02:14:10;12.50;64.70
792;DHT22;379;49.022;12.148;2023-06-01T02:16:37;12.50;65.10
792;DHT22;379;49.022;12.148;2023-06-01T02:19:05;12.50;65.30
792;DHT22;379;49.022;12.148;2023-06-01T02:21:36;12.40;65.40
792;DHT22;379;49.022;12.148;2023-06-01T02:24:03;12.40;65.60
792;DHT22;379;49.022;12.148;2023-06-01T02:26:32;12.30;65.80
792;DHT22;379;49.022;12.148;2023-06-01T02:28:59;12.30;66.10
792;DHT22;379;49.022;12.148;2023-06-01T02:31:27;12.30;66.40
792;DHT22;379;49.022;12.148;2023-06-01T02:33:54;12.20;66.80
792;DHT22;379;49.022;12.148;2023-06-01T02:36:22;12.10;67.10
792;DHT22;379;49.022;12.148;2023-06-01T02:38:50;12.00;67.20
792;DHT22;379;49.022;12.148;2023-06-01T02:41:17;11.90;67.40
792;DHT22;379;49.022;12.148;2023-06-01T02:43:44;11.80;67.80
792;DHT22;379;49.022;12.148;2023-06-01T02:46:10;11.80;67.90
792;DHT22;379;49.022;12.148;2023-06-01T02:48:37;11.80;67.70
792;DHT22;379;49.022;12.148;2023-06-01T02:51:04;11.60;67.70
792;DHT22;379;49.022;12.148;2023-06-01T02:53:33;11.60;68.10
792;DHT22;379;49.022;12.148;2023-06-01T02:55:59;11.50;68.30
792;DHT22;379;49.022;12.148;2023-06-01T02:58:26;11.40;68.70
792;DHT22;379;49.022;12.148;2023-06-01T03:00:55;11.40;68.80
792;DHT22;379;49.022;12.148;2023-06-01T03:03:23;11.40;69.30
792;DHT22;379;49.022;12.148;2023-06-01T03:05:50;11.40;69.30
792;DHT22;379;49.022;12.148;2023-06-01T03:08:17;11.40;69.70
792;DHT22;379;49.022;12.148;2023-06-01T03:10:45;11.50;69.70
792;DHT22;379;49.022;12.148;2023-06-01T03:13:12;11.50;69.40
792;DHT22;379;49.022;12.148;2023-06-01T03:15:39;11.60;69.20
792;DHT22;379;49.022;12.148;2023-06-01T03:18:05;11.70;68.90
792;DHT22;379;49.022;12.148;2023-06-01T03:20:34;11.70;69.30
792;DHT22;379;49.022;12.148;2023-06-01T03:23:01;11.60;69.60
792;DHT22;379;49.022;12.148;2023-06-01T03:25:28;11.60;69.40
792;DHT22;379;49.022;12.148;2023-06-01T03:27:56;11.70;69.10
792;DHT22;379;49.022;12.148;2023-06-01T03:30:22;11.70;69.10
792;DHT22;379;49.022;12.148;2023-06-01T03:32:49;11.70;69.00
792;DHT22;379;49.022;12.148;2023-06-01T03:35:16;11.70;69.00
792;DHT22;379;49.022;12.148;2023-06-01T03:37:45;11.60;69.90
792;DHT22;379;49.022;12.148;2023-06-01T03:40:12;11.60;69.70
792;DHT22;379;49.022;12.148;2023-06-01T03:42:40;11.60;69.30
792;DHT22;379;49.022;12.148;2023-06-01T03:45:10;11.70;68.80
792;DHT22;379;49.022;12.148;2023-06-01T03:47:37;11.80;68.50
792;DHT22;379;49.022;12.148;2023-06-01T03:50:06;11.80;68.50
792;DHT22;379;49.022;12.148;2023-06-01T03:52:33;11.90;68.50
792;DHT22;379;49.022;12.148;2023-06-01T03:55:02;11.90;68.60
792;DHT22;379;49.022;12.148;2023-06-01T03:57:30;11.90;68.60
792;DHT22;379;49.022;12.148;2023-06-01T03:59:56;12.00;68.50
792;DHT22;379;49.022;12.148;2023-06-01T04:02:25;12.00;69.10
792;DHT22;379;49.022;12.148;2023-06-01T04:04:52;11.90;69.70
792;DHT22;379;49.022;12.148;2023-06-01T04:07:18;11.90;70.60
792;DHT22;379;49.022;12.148;2023-06-01T04:09:47;11.80;71.20
792;DHT22;379;49.022;12.148;2023-06-01T04:12:14;11.80;71.70
792;DHT22;379;49.022;12.148;2023-06-01T04:14:41;11.80;72.10
792;DHT22;379;49.022;12.148;2023-06-01T04:17:08;11.80;71.30
792;DHT22;379;49.022;12.148;2023-06-01T04:19:38;11.90;70.80
792;DHT22;379;49.022;12.148;2023-06-01T04:22:05;11.90;70.80
792;DHT22;379;49.022;12.148;2023-06-01T04:24:32;12.00;70.50
792;DHT22;379;49.022;12.148;2023-06-01T04:26:58;12.10;70.10
792;DHT22;379;49.022;12.148;2023-06-01T04:29:25;12.20;69.70
792;DHT22;379;49.022;12.148;2023-06-01T04:31:52;12.40;69.30
792;DHT22;379;49.022;12.148;2023-06-01T04:34:20;12.60;68.80
792;DHT22;379;49.022;12.148;2023-06-01T04:36:50;12.90;68.50
792;DHT22;379;49.022;12.148;2023-06-01T04:39:17;13.30;68.00
792;DHT22;379;49.022;12.148;2023-06-01T04:41:43;13.60;67.00
792;DHT22;379;49.022;12.148;2023-06-01T04:44:10;13.90;66.10
792;DHT22;379;49.022;12.148;2023-06-01T04:46:38;14.20;64.70
792;DHT22;379;49.022;12.148;2023-06-01T04:49:06;14.40;63.60
792;DHT22;379;49.022;12.148;2023-06-01T04:51:33;14.60;63.00
792;DHT22;379;49.022;12.148;2023-06-01T04:54:03;14.70;62.20
792;DHT22;379;49.022;12.148;2023-06-01T04:56:30;14.90;61.70
792;DHT22;379;49.022;12.148;2023-06-01T04:58:57;15.10;61.20
792;DHT22;379;49.022;12.148;2023-06-01T05:01:26;15.20;60.90
792;DHT22;379;49.022;12.148;2023-06-01T05:03:55;15.40;60.30
792;DHT22;379;49.022;12.148;2023-06-01T05:06:23;15.50;60.00
792;DHT22;379;49.022;12.148;2023-06-01T05:08:50;15.50;59.80
792;DHT22;379;49.022;12.148;2023-06-01T05:11:19;15.70;59.90
792;DHT22;379;49.022;12.148;2023-06-01T05:13:47;15.80;59.60
792;DHT22;379;49.022;12.148;2023-06-01T05:16:14;15.90;59.60
792;DHT22;379;49.022;12.148;2023-06-01T05:18:41;16.00;58.90
792;DHT22;379;49.022;12.148;2023-06-01T05:21:07;16.20;58.60
792;DHT22;379;49.022;12.148;2023-06-01T05:23:34;16.30;58.30
792;DHT22;379;49.022;12.148;2023-06-01T05:26:01;16.60;58.00
792;DHT22;379;49.022;12.148;2023-06-01T05:28:30;16.90;57.30
792;DHT22;379;49.022;12.148;2023-06-01T05:30:57;17.00;56.90
792;DHT22;379;49.022;12.148;2023-06-01T05:33:24;17.10;56.80
792;DHT22;379;49.022;12.148;2023-06-01T05:35:51;17.10;56.80
792;DHT22;379;49.022;12.148;2023-06-01T05:38:18;17.30;56.60
792;DHT22;379;49.022;12.148;2023-06-01T05:40:45;17.50;56.50
792;DHT22;379;49.022;12.148;2023-06-01T05:43:12;17.80;56.30
792;DHT22;379;49.022;12.148;2023-06-01T05:45:40;18.10;56.00
792;DHT22;379;49.022;12.148;2023-06-01T05:48:07;18.40;55.50
792;DHT22;379;49.022;12.148;2023-06-01T05:50:33;18.70;54.90
792;DHT22;379;49.022;12.148;2023-06-01T05:53:00;18.90;54.50
792;DHT22;379;49.022;12.148;2023-06-01T05:55:27;19.00;54.00
792;DHT22;379;49.022;12.148;2023-06-01T05:57:53;19.10;54.20
792;DHT22;379;49.022;12.148;2023-06-01T06:00:20;19.20;54.10
792;DHT22;379;49.022;12.148;2023-06-01T06:02:49;19.40;53.90
792;DHT22;379;49.022;12.148;2023-06-01T06:05:15;19.50;53.40
792;DHT22;379;49.022;12.148;2023-06-01T06:07:42;19.60;53.70
792;DHT22;379;49.022;12.148;2023-06-01T06:10:10;19.80;53.50
792;DHT22;379;49.022;12.148;2023-06-01T06:12:37;20.00;53.30
792;DHT22;379;49.022;12.148;2023-06-01T06:15:05;20.30;52.70
792;DHT22;379;49.022;12.148;2023-06-01T06:17:32;20.60;52.40
792;DHT22;379;49.022;12.148;2023-06-01T06:20:00;20.80;51.80
792;DHT22;379;49.022;12.148;2023-06-01T06:22:31;21.00;51.60
792;DHT22;379;49.022;12.148;2023-06-01T06:24:58;21.00;51.10
792;DHT22;379;49.022;12.148;2023-06-01T06:27:25;20.90;50.90
792;DHT22;379;49.022;12.148;2023-06-01T06:29:52;20.70;51.20
792;DHT22;379;49.022;12.148;2023-06-01T06:32:19;20.60;51.60
792;DHT22;379;49.022;12.148;2023-06-01T06:34:46;20.80;52.10
792;DHT22;379;49.022;12.148;2023-06-01T06:37:14;21.00;52.00
792;DHT22;379;49.022;12.148;2023-06-01T06:39:41;21.10;51.90
792;DHT22;379;49.022;12.148;2023-06-01T06:42:08;21.30;51.60
792;DHT22;379;49.022;12.148;2023-06-01T06:44:35;21.50;51.20
792;DHT22;379;49.022;12.148;2023-06-01T06:47:01;21.60;50.80
792;DHT22;379;49.022;12.148;2023-06-01T06:49:28;21.70;50.70
792;DHT22;379;49.022;12.148;2023-06-01T06:51:55;21.70;50.30
792;DHT22;379;49.022;12.148;2023-06-01T06:54:23;21.70;50.70
792;DHT22;379;49.022;12.148;2023-06-01T06:56:50;21.80;50.40
792;DHT22;379;49.022;12.148;2023-06-01T06:59:17;22.10;50.70
792;DHT22;379;49.022;12.148;2023-06-01T07:01:43;22.40;49.90
792;DHT22;379;49.022;12.148;2023-06-01T07:04:10;22.70;49.40
792;DHT22;379;49.022;12.148;2023-06-01T07:06:37;22.70;48.90
792;DHT22;379;49.022;12.148;2023-06-01T07:09:03;22.70;49.10
792;DHT22;379;49.022;12.148;2023-06-01T07:11:32;22.80;49.40
792;DHT22;379;49.022;12.148;2023-06-01T07:13:59;23.00;49.00
792;DHT22;379;49.022;12.148;2023-06-01T07:16:26;23.30;48.70
792;DHT22;379;49.022;12.148;2023-06-01T07:18:54;23.40;47.50
792;DHT22;379;49.022;12.148;2023-06-01T07:21:21;23.30;47.40
792;DHT22;379;49.022;12.148;2023-06-01T07:23:48;23.50;48.40
792;DHT22;379;49.022;12.148;2023-06-01T07:26:15;24.00;47.70
792;DHT22;379;49.022;12.148;2023-06-01T07:28:43;24.70;47.30
792;DHT22;379;49.022;12.148;2023-06-01T07:31:09;25.30;46.30
792;DHT22;379;49.022;12.148;2023-06-01T07:33:36;26.00;44.80
792;DHT22;379;49.022;12.148;2023-06-01T07:36:05;26.60;43.80
792;DHT22;379;49.022;12.148;2023-06-01T07:38:31;26.70;42.40
792;DHT22;379;49.022;12.148;2023-06-01T07:40:58;26.80;42.60
792;DHT22;379;49.022;12.148;2023-06-01T07:43:25;26.60;42.30
792;DHT22;379;49.022;12.148;2023-06-01T07:45:53;26.60;42.70
792;DHT22;379;49.022;12.148;2023-06-01T07:48:20;26.60;42.50
792;DHT22;379;49.022;12.148;2023-06-01T07:50:47;26.50;42.70
792;DHT22;379;49.022;12.148;2023-06-01T07:53:14;26.50;43.40
792;DHT22;379;49.022;12.148;2023-06-01T07:55:41;26.40;43.50
792;DHT22;379;49.022;12.148;2023-06-01T07:58:09;26.80;44.40
792;DHT22;379;49.022;12.148;2023-06-01T08:00:36;27.10;43.40
792;DHT22;379;49.022;12.148;2023-06-01T08:03:04;27.40;42.60
792;DHT22;379;49.022;12.148;2023-06-01T08:05:33;27.00;41.70
792;DHT22;379;49.022;12.148;2023-06-01T08:08:01;26.50;42.20
792;DHT22;379;49.022;12.148;2023-06-01T08:10:28;26.20;42.60
792;DHT22;379;49.022;12.148;2023-06-01T08:12:55;25.70;43.50
792;DHT22;379;49.022;12.148;2023-06-01T08:15:23;25.70;44.30
792;DHT22;379;49.022;12.148;2023-06-01T08:17:51;25.60;43.60
792;DHT22;379;49.022;12.148;2023-06-01T08:20:19;25.10;43.80
792;DHT22;379;49.022;12.148;2023-06-01T08:22:48;24.70;44.70
792;DHT22;379;49.022;12.148;2023-06-01T08:25:16;24.40;45.10
792;DHT22;379;49.022;12.148;2023-06-01T08:27:43;24.00;45.90
792;DHT22;379;49.022;12.148;2023-06-01T08:30:10;23.90;46.60
792;DHT22;379;49.022;12.148;2023-06-01T08:32:37;24.00;46.50
792;DHT22;379;49.022;12.148;2023-06-01T08:35:05;24.20;46.40
792;DHT22;379;49.022;12.148;2023-06-01T08:37:34;24.20;46.00
792;DHT22;379;49.022;12.148;2023-06-01T08:40:01;24.10;45.70
792;DHT22;379;49.022;12.148;2023-06-01T08:42:34;24.10;45.60
792;DHT22;379;49.022;12.148;2023-06-01T08:45:05;24.20;45.70
792;DHT22;379;49.022;12.148;2023-06-01T08:47:33;24.50;46.80
792;DHT22;379;49.022;12.148;2023-06-01T08:50:01;25.00;47.20
792;DHT22;379;49.022;12.148;2023-06-01T08:52:29;25.30;46.90
792;DHT22;379;49.022;12.148;2023-06-01T08:54:59;25.80;46.10
792;DHT22;379;49.022;12.148;2023-06-01T08:57:27;26.00;45.50
792;DHT22;379;49.022;12.148;2023-06-01T08:59:54;26.30;45.30
792;DHT22;379;49.022;12.148;2023-06-01T09:02:21;26.50;44.60
792;DHT22;379;49.022;12.148;2023-06-01T09:04:48;26.70;44.20
792;DHT22;379;49.022;12.148;2023-06-01T09:07:16;26.90;43.50
792;DHT22;379;49.022;12.148;2023-06-01T09:09:43;27.00;43.40
792;DHT22;379;49.022;12.148;2023-06-01T09:12:26;27.10;43.70
792;DHT22;379;49.022;12.148;2023-06-01T09:15:08;27.00;40.90
792;DHT22;379;49.022;12.148;2023-06-01T09:17:35;26.60;39.50
792;DHT22;379;49.022;12.148;2023-06-01T09:20:03;26.60;41.70
792;DHT22;379;49.022;12.148;2023-06-01T09:22:38;26.70;42.40
792;DHT22;379;49.022;12.148;2023-06-01T09:25:06;26.90;42.70
792;DHT22;379;49.022;12.148;2023-06-01T09:27:44;26.90;38.30
792;DHT22;379;49.022;12.148;2023-06-01T09:30:12;26.40;34.70
792;DHT22;379;49.022;12.148;2023-06-01T09:32:39;26.10;34.00
792;DHT22;379;49.022;12.148;2023-06-01T09:35:06;25.80;34.60
792;DHT22;379;49.022;12.148;2023-06-01T09:37:33;25.80;35.40
792;DHT22;379;49.022;12.148;2023-06-01T09:40:01;25.90;36.30
792;DHT22;379;49.022;12.148;2023-06-01T09:42:31;25.90;35.70
792;DHT22;379;49.022;12.148;2023-06-01T09:45:14;25.80;35.70
792;DHT22;379;49.022;12.148;2023-06-01T09:47:41;25.50;35.10
792;DHT22;379;49.022;12.148;2023-06-01T09:50:08;25.30;35.30
792;DHT22;379;49.022;12.148;2023-06-01T09:52:35;25.30;36.60
792;DHT22;379;49.022;12.148;2023-06-01T09:55:05;25.50;37.90
792;DHT22;379;49.022;12.148;2023-06-01T09:57:33;25.80;37.60
792;DHT22;379;49.022;12.148;2023-06-01T10:00:01;25.70;34.10
792;DHT22;379;49.022;12.148;2023-06-01T10:02:32;25.50;33.60
792;DHT22;379;49.022;12.148;2023-06-01T10:05:00;25.40;34.10
792;DHT22;379;49.022;12.148;2023-06-01T10:07:29;25.20;32.70
792;DHT22;379;49.022;12.148;2023-06-01T10:09:57;25.00;33.00
792;DHT22;379;49.022;12.148;2023-06-01T10:12:25;24.90;33.10
792;DHT22;379;49.022;12.148;2023-06-01T10:14:53;24.90;33.70
792;DHT22;379;49.022;12.148;2023-06-01T10:17:22;24.90;34.40
792;DHT22;379;49.022;12.148;2023-06-01T10:19:49;24.80;34.20
792;DHT22;379;49.022;12.148;2023-06-01T10:22:16;25.00;34.60
792;DHT22;379;49.022;12.148;2023-06-01T10:24:43;25.10;34.70
792;DHT22;379;49.022;12.148;2023-06-01T10:27:15;25.20;34.30
792;DHT22;379;49.022;12.148;2023-06-01T10:29:45;25.30;34.80
792;DHT22;379;49.022;12.148;2023-06-01T10:32:41;25.50;34.40
792;DHT22;379;49.022;12.148;2023-06-01T10:35:09;25.70;35.40
792;DHT22;379;49.022;12.148;2023-06-01T10:37:37;25.90;37.70
792;DHT22;379;49.022;12.148;2023-06-01T10:40:19;26.20;34.20
792;DHT22;379;49.022;12.148;2023-06-01T10:42:47;26.00;32.60
792;DHT22;379;49.022;12.148;2023-06-01T10:45:36;25.70;32.70
792;DHT22;379;49.022;12.148;2023-06-01T10:48:06;25.60;32.60
792;DHT22;379;49.022;12.148;2023-06-01T10:50:33;25.50;32.40
792;DHT22;379;49.022;12.148;2023-06-01T10:53:25;25.30;32.20
792;DHT22;379;49.022;12.148;2023-06-01T10:56:20;25.30;33.00
792;DHT22;379;49.022;12.148;2023-06-01T10:58:47;25.40;31.30
792;DHT22;379;49.022;12.148;2023-06-01T11:01:35;25.50;30.80
792;DHT22;379;49.022;12.148;2023-06-01T11:04:04;25.50;29.80
792;DHT22;379;49.022;12.148;2023-06-01T11:06:32;25.70;30.80
792;DHT22;379;49.022;12.148;2023-06-01T11:09:02;26.00;31.30
792;DHT22;379;49.022;12.148;2023-06-01T11:11:59;26.20;30.90
792;DHT22;379;49.022;12.148;2023-06-01T11:14:27;26.30;30.50
792;DHT22;379;49.022;12.148;2023-06-01T11:16:55;26.40;30.60
792;DHT22;379;49.022;12.148;2023-06-01T11:19:25;26.30;31.10
792;DHT22;379;49.022;12.148;2023-06-01T11:21:57;26.30;30.90
792;DHT22;379;49.022;12.148;2023-06-01T11:24:31;26.50;31.60
792;DHT22;379;49.022;12.148;2023-06-01T11:27:00;26.50;30.90
792;DHT22;379;49.022;12.148;2023-06-01T11:29:32;26.40;30.00
792;DHT22;379;49.022;12.148;2023-06-01T11:32:01;26.60;31.70
792;DHT22;379;49.022;12.148;2023-06-01T11:34:31;26.90;31.70
792;DHT22;379;49.022;12.148;2023-06-01T11:36:59;27.10;31.70
792;DHT22;379;49.022;12.148;2023-06-01T11:39:27;27.30;30.10
792;DHT22;379;49.022;12.148;2023-06-01T11:42:04;27.10;29.50
792;DHT22;379;49.022;12.148;2023-06-01T11:44:32;26.90;30.40
792;DHT22;379;49.022;12.148;2023-06-01T11:46:59;27.00;30.90
792;DHT22;379;49.022;12.148;2023-06-01T11:49:27;27.20;30.90
792;DHT22;379;49.022;12.148;2023-06-01T11:51:55;27.30;31.40
792;DHT22;379;49.022;12.148;2023-06-01T11:54:26;27.50;30.30
792;DHT22;379;49.022;12.148;2023-06-01T11:56:54;27.60;30.50
792;DHT22;379;49.022;12.148;2023-06-01T11:59:22;27.50;30.70
792;DHT22;379;49.022;12.148;2023-06-01T12:01:50;27.60;31.00
792;DHT22;379;49.022;12.148;2023-06-01T12:04:20;27.70;30.00
792;DHT22;379;49.022;12.148;2023-06-01T12:06:47;27.60;30.00
792;DHT22;379;49.022;12.148;2023-06-01T12:09:16;27.30;29.50
792;DHT22;379;49.022;12.148;2023-06-01T12:11:44;27.20;30.10
792;DHT22;379;49.022;12.148;2023-06-01T12:14:12;27.20;30.70
792;DHT22;379;49.022;12.148;2023-06-01T12:16:52;27.50;32.00
792;DHT22;379;49.022;12.148;2023-06-01T12:19:19;27.70;31.50
792;DHT22;379;49.022;12.148;2023-06-01T12:21:47;27.90;31.90
792;DHT22;379;49.022;12.148;2023-06-01T12:24:17;28.20;32.80
792;DHT22;379;49.022;12.148;2023-06-01T12:26:44;28.30;31.60
792;DHT22;379;49.022;12.148;2023-06-01T12:29:11;28.30;30.90
792;DHT22;379;49.022;12.148;2023-06-01T12:31:38;28.30;30.00
792;DHT22;379;49.022;12.148;2023-06-01T12:34:15;28.20;30.20
792;DHT22;379;49.022;12.148;2023-06-01T12:36:42;28.00;30.00
792;DHT22;379;49.022;12.148;2023-06-01T12:39:09;28.10;31.90
792;DHT22;379;49.022;12.148;2023-06-01T12:41:46;28.20;33.20
792;DHT22;379;49.022;12.148;2023-06-01T12:44:18;28.40;33.10
792;DHT22;379;49.022;12.148;2023-06-01T12:46:45;28.60;33.20
792;DHT22;379;49.022;12.148;2023-06-01T12:49:13;28.70;33.00
792;DHT22;379;49.022;12.148;2023-06-01T12:51:40;28.90;33.00
792;DHT22;379;49.022;12.148;2023-06-01T12:54:07;28.90;32.90
792;DHT22;379;49.022;12.148;2023-06-01T12:56:33;28.90;31.20
792;DHT22;379;49.022;12.148;2023-06-01T12:59:02;28.70;31.00
792;DHT22;379;49.022;12.148;2023-06-01T13:01:28;28.30;30.60
792;DHT22;379;49.022;12.148;2023-06-01T13:03:55;28.00;31.20
792;DHT22;379;49.022;12.148;2023-06-01T13:06:23;27.90;31.90
792;DHT22;379;49.022;12.148;2023-06-01T13:08:50;27.80;31.80
792;DHT22;379;49.022;12.148;2023-06-01T13:11:17;27.70;31.70
792;DHT22;379;49.022;12.148;2023-06-01T13:13:44;27.90;31.70
792;DHT22;379;49.022;12.148;2023-06-01T13:16:13;28.10;31.60
792;DHT22;379;49.022;12.148;2023-06-01T13:18:40;28.20;31.60
792;DHT22;379;49.022;12.148;2023-06-01T13:21:07;28.30;32.70
792;DHT22;379;49.022;12.148;2023-06-01T13:23:34;28.20;31.90
792;DHT22;379;49.022;12.148;2023-06-01T13:26:00;28.40;32.40
792;DHT22;379;49.022;12.148;2023-06-01T13:28:27;28.50;32.00
792;DHT22;379;49.022;12.148;2023-06-01T13:30:54;28.40;31.30
792;DHT22;379;49.022;12.148;2023-06-01T13:33:22;28.10;31.80
792;DHT22;379;49.022;12.148;2023-06-01T13:35:49;27.90;32.00
792;DHT22;379;49.022;12.148;2023-06-01T13:38:16;28.20;33.70
792;DHT22;379;49.022;12.148;2023-06-01T13:40:43;28.40;34.00
792;DHT22;379;49.022;12.148;2023-06-01T13:43:09;28.60;33.60
792;DHT22;379;49.022;12.148;2023-06-01T13:45:36;28.80;33.70
792;DHT22;379;49.022;12.148;2023-06-01T13:48:03;28.90;34.20
792;DHT22;379;49.022;12.148;2023-06-01T13:50:31;28.70;31.80
792;DHT22;379;49.022;12.148;2023-06-01T13:52:58;28.40;31.80
792;DHT22;379;49.022;12.148;2023-06-01T13:55:25;28.20;31.90
792;DHT22;379;49.022;12.148;2023-06-01T13:57:53;28.10;31.80
792;DHT22;379;49.022;12.148;2023-06-01T14:00:20;27.90;31.50
792;DHT22;379;49.022;12.148;2023-06-01T14:02:47;27.80;31.60
792;DHT22;379;49.022;12.148;2023-06-01T14:05:13;27.70;32.50
792;DHT22;379;49.022;12.148;2023-06-01T14:07:42;27.80;32.70
792;DHT22;379;49.022;12.148;2023-06-01T14:10:09;27.70;31.60
792;DHT22;379;49.022;12.148;2023-06-01T14:12:36;27.60;31.30
792;DHT22;379;49.022;12.148;2023-06-01T14:15:03;27.40;31.60
792;DHT22;379;49.022;12.148;2023-06-01T14:17:31;27.40;32.00
792;DHT22;379;49.022;12.148;2023-06-01T14:19:57;27.40;31.00
792;DHT22;379;49.022;12.148;2023-06-01T14:22:24;27.40;31.10
792;DHT22;379;49.022;12.148;2023-06-01T14:24:52;27.40;31.50
792;DHT22;379;49.022;12.148;2023-06-01T14:27:19;27.60;32.20
792;DHT22;379;49.022;12.148;2023-06-01T14:29:46;27.80;32.60
792;DHT22;379;49.022;12.148;2023-06-01T14:32:13;27.90;33.00
792;DHT22;379;49.022;12.148;2023-06-01T14:34:40;28.00;32.90
792;DHT22;379;49.022;12.148;2023-06-01T14:37:07;28.00;30.60
792;DHT22;379;49.022;12.148;2023-06-01T14:39:36;28.00;31.90
792;DHT22;379;49.022;12.148;2023-06-01T14:42:05;28.00;32.70
792;DHT22;379;49.022;12.148;2023-06-01T14:44:32;28.10;32.60
792;DHT22;379;49.022;12.148;2023-06-01T14:46:59;28.10;31.30
792;DHT22;379;49.022;12.148;2023-06-01T14:49:25;27.90;30.30
792;DHT22;379;49.022;12.148;2023-06-01T14:51:52;27.80;30.70
792;DHT22;379;49.022;12.148;2023-06-01T14:54:19;27.70;31.20
792;DHT22;379;49.022;12.148;2023-06-01T14:56:46;27.80;33.10
792;DHT22;379;49.022;12.148;2023-06-01T14:59:14;27.90;33.70
792;DHT22;379;49.022;12.148;2023-06-01T15:01:41;28.00;32.00
792;DHT22;379;49.022;12.148;2023-06-01T15:04:07;28.00;31.60
792;DHT22;379;49.022;12.148;2023-06-01T15:06:34;28.10;30.70
792;DHT22;379;49.022;12.148;2023-06-01T15:09:02;28.10;30.40
792;DHT22;379;49.022;12.148;2023-06-01T15:11:28;28.10;30.80
792;DHT22;379;49.022;12.148;2023-06-01T15:13:55;28.20;31.30
792;DHT22;379;49.022;12.148;2023-06-01T15:16:23;28.30;31.90
792;DHT22;379;49.022;12.148;2023-06-01T15:18:50;28.40;32.00
792;DHT22;379;49.022;12.148;2023-06-01T15:21:17;28.40;31.00
792;DHT22;379;49.022;12.148;2023-06-01T15:23:44;28.50;30.30
792;DHT22;379;49.022;12.148;2023-06-01T15:26:10;28.40;29.80
792;DHT22;379;49.022;12.148;2023-06-01T15:28:37;28.40;28.90
792;DHT22;379;49.022;12.148;2023-06-01T15:31:04;28.20;29.10
792;DHT22;379;49.022;12.148;2023-06-01T15:33:32;28.10;29.50
792;DHT22;379;49.022;12.148;2023-06-01T15:35:58;28.10;29.60
792;DHT22;379;49.022;12.148;2023-06-01T15:38:25;28.00;29.80
792;DHT22;379;49.022;12.148;2023-06-01T15:40:52;28.00;30.00
792;DHT22;379;49.022;12.148;2023-06-01T15:43:19;27.90;29.70
792;DHT22;379;49.022;12.148;2023-06-01T15:45:45;27.70;30.00
792;DHT22;379;49.022;12.148;2023-06-01T15:48:12;27.70;30.00
792;DHT22;379;49.022;12.148;2023-06-01T15:50:40;27.60;30.10
792;DHT22;379;49.022;12.148;2023-06-01T15:53:07;27.50;30.20
792;DHT22;379;49.022;12.148;2023-06-01T15:55:34;27.50;30.40
792;DHT22;379;49.022;12.148;2023-06-01T15:58:01;27.40;30.60
792;DHT22;379;49.022;12.148;2023-06-01T16:00:28;27.30;30.90
792;DHT22;379;49.022;12.148;2023-06-01T16:02:56;27.10;31.30
792;DHT22;379;49.022;12.148;2023-06-01T16:05:23;27.10;31.60
792;DHT22;379;49.022;12.148;2023-06-01T16:07:51;26.90;32.20
792;DHT22;379;49.022;12.148;2023-06-01T16:10:18;26.80;32.50
792;DHT22;379;49.022;12.148;2023-06-01T16:12:45;26.70;33.00
792;DHT22;379;49.022;12.148;2023-06-01T16:15:11;26.60;33.30
792;DHT22;379;49.022;12.148;2023-06-01T16:17:38;26.70;33.70
792;DHT22;379;49.022;12.148;2023-06-01T16:20:06;26.70;33.80
792;DHT22;379;49.022;12.148;2023-06-01T16:22:33;26.50;33.70
792;DHT22;379;49.022;12.148;2023-06-01T16:25:02;26.50;33.90